Fjordprinsessen — LJVE — position and weather

sailwx.info

Track history (hours):
 
Tides and Currents Weather Stations Pressure Air Temp Water Temp Dewpoint Dewpoint Depression Visibility Wind Speed Wind Dir Waves Ship Positions

Fjordprinsessen

Last reported at 2015-May-27 09:12 UTC. Time now 2015-May-27 09:55 UTC.
Position N 66°06' E 012°45'.

Length 30 m; draft 2 m.

Type: High speed craft. MMSI: 259604000.

Date/timePositionNaut miles runAvg speedWind from/ knotsBaromVisibWave heightAir tempDewpointWater temp
2015-May-27 09:12N 66°06' E 012°45'13 4.5
2015-May-27 06:25N 66°18' E 012°57'910.4
2015-May-27 05:33N 66°22' E 012°38'1514.8
2015-May-27 04:33N 66°30' E 012°06'6 4.3
2015-May-27 03:13N 66°35' E 012°13'0 0.0
2015-May-27 01:25N 66°35' E 012°13'0 0.0
2015-May-27 00:31N 66°35' E 012°13'0 0.0
2015-May-26 22:13N 66°35' E 012°13'0 0.0
2015-May-26 20:07N 66°35' E 012°13'610.4
2015-May-26 19:33N 66°30' E 012°06'1514.9
2015-May-26 18:33N 66°22' E 012°37'1616.3
2015-May-26 17:33N 66°35' E 012°13'1313.3
2015-May-26 16:33N 66°22' E 012°24'1514.0
2015-May-26 15:31N 66°20' E 012°60'0 0.0
2015-May-26 06:15N 66°21' E 012°59'912.7
2015-May-26 05:33N 66°22' E 012°38'1514.6
2015-May-26 04:33N 66°30' E 012°07'6 4.3
2015-May-26 03:15N 66°35' E 012°13'0 0.0
2015-May-26 02:21N 66°35' E 012°13'0 0.0
2015-May-26 01:03N 66°35' E 012°13'0 0.0
2015-May-26 00:09N 66°35' E 012°13'0 0.0
2015-May-25 23:27N 66°35' E 012°13'0 0.0
2015-May-25 22:33N 66°35' E 012°13'0 0.0
2015-May-25 21:03N 66°35' E 012°13'2 4.7
2015-May-25 20:33N 66°33' E 012°10'1515.4
2015-May-25 19:34N 66°22' E 012°37'9 7.0
2015-May-25 18:13N 66°18' E 012°57'711.0
2015-May-25 17:33N 66°23' E 012°46'1615.6
2015-May-25 16:33N 66°29' E 012°10'9 9.0
2015-May-25 15:34N 66°28' E 012°33'1412.9
2015-May-25 14:30N 66°20' E 013°00'1314.2
2015-May-25 13:34N 66°23' E 012°28'1312.9
2015-May-25 12:33N 66°35' E 012°13'1414.2
2015-May-25 11:34N 66°26' E 012°40'9 0.2
2015-May-23 12:22N 66°19' E 012°53'2327.8
2015-May-23 11:33N 66°35' E 012°12'1313.2
2015-May-23 10:34N 66°22' E 012°23'1913.3
2015-May-23 09:10N 66°05' E 012°43'13 4.6
2015-May-23 06:25N 66°17' E 012°57'910.9
2015-May-23 05:33N 66°22' E 012°37'1514.5
2015-May-23 04:33N 66°30' E 012°06'6 2.4
2015-May-23 02:07N 66°35' E 012°13'6 0.9
2015-May-22 19:33N 66°30' E 012°06'1514.8
2015-May-22 18:33N 66°22' E 012°37'1615.7
2015-May-22 17:31N 66°35' E 012°12'1313.7
2015-May-22 16:34N 66°22' E 012°22'1515.2
2015-May-22 15:33N 66°20' E 013°00'8 2.8
2015-May-22 12:34N 66°25' E 012°43'1515.4
2015-May-22 11:33N 66°30' E 012°06'1514.7
2015-May-22 10:33N 66°22' E 012°38'1512.1
2015-May-22 09:16N 66°07' E 012°47'10 3.7
2015-May-22 06:27N 66°17' E 012°57'910.6
2015-May-22 05:34N 66°22' E 012°38'1514.5
2015-May-22 04:33N 66°30' E 012°06'6 4.0
2015-May-22 03:08N 66°35' E 012°13'0 0.0
2015-May-22 02:20N 66°35' E 012°13'0 0.0
2015-May-21 23:32N 66°35' E 012°13'6 1.5
2015-May-21 19:33N 66°30' E 012°06'1514.9
2015-May-21 18:33N 66°22' E 012°38'1413.4
2015-May-21 17:32N 66°33' E 012°17'1111.5
2015-May-21 16:33N 66°22' E 012°22'1513.6
2015-May-21 15:26N 66°20' E 013°00'2 0.2
2015-May-21 06:18N 66°19' E 012°58'911.8
2015-May-21 05:33N 66°22' E 012°38'1514.8
2015-May-21 04:33N 66°30' E 012°07'6 5.1
2015-May-21 03:29N 66°35' E 012°13'0 0.0
2015-May-21 02:29N 66°35' E 012°13'0 0.0
2015-May-21 01:29N 66°35' E 012°13'0 0.0
2015-May-21 00:05N 66°35' E 012°13'0 0.0
2015-May-20 23:04N 66°35' E 012°13'0 0.0
2015-May-20 21:28N 66°35' E 012°13'0 0.0
2015-May-20 20:10N 66°35' E 012°13'5 8.3
2015-May-20 19:34N 66°31' E 012°07'1514.8
2015-May-20 18:33N 66°22' E 012°37'1614.7
2015-May-20 17:30N 66°34' E 012°14'1313.3
2015-May-20 16:34N 66°22' E 012°22'1515.3
2015-May-20 15:33N 66°20' E 013°00'1 0.5
2015-May-20 13:11N 66°20' E 012°58'711.7
2015-May-20 12:33N 66°25' E 012°44'1616.1
2015-May-20 11:33N 66°30' E 012°06'1514.9
2015-May-20 10:33N 66°22' E 012°38'1611.8
2015-May-20 09:14N 66°07' E 012°46'13 4.3
2015-May-20 06:18N 66°19' E 012°58'911.8
2015-May-20 05:33N 66°22' E 012°38'1514.7
2015-May-20 04:33N 66°30' E 012°07'5 4.2
2015-May-20 03:17N 66°35' E 012°13'0 0.0
2015-May-20 02:29N 66°35' E 012°13'0 0.0
2015-May-20 01:11N 66°35' E 012°13'0 0.0
2015-May-20 00:17N 66°35' E 012°13'0 0.0
2015-May-19 23:23N 66°35' E 012°13'0 0.0
2015-May-19 22:17N 66°35' E 012°13'0 0.0
2015-May-19 21:17N 66°35' E 012°13'0 0.0
2015-May-19 20:29N 66°35' E 012°13'5 5.2
2015-May-19 19:34N 66°31' E 012°07'1514.9
2015-May-19 18:33N 66°22' E 012°37'1313.4
2015-May-19 17:33N 66°33' E 012°18'1110.8
2015-May-19 16:34N 66°22' E 012°22'1514.4
2015-May-19 15:30N 66°20' E 013°00'0 0.0
2015-May-19 06:15N 66°21' E 012°60'912.5
2015-May-19 05:33N 66°23' E 012°39'1514.7
2015-May-19 04:33N 66°30' E 012°06'6 5.1
2015-May-19 03:25N 66°35' E 012°13'0 0.0
2015-May-19 02:31N 66°35' E 012°13'0 0.0
2015-May-19 01:25N 66°35' E 012°13'0 0.0
2015-May-19 00:25N 66°35' E 012°13'0 0.0
2015-May-18 23:31N 66°35' E 012°13'0 0.0
2015-May-18 22:25N 66°35' E 012°13'0 0.0
2015-May-18 21:25N 66°35' E 012°13'0 0.0
2015-May-18 20:31N 66°35' E 012°13'1 1.0
2015-May-18 19:34N 66°34' E 012°12'1312.9
2015-May-18 18:34N 66°24' E 012°32'1110.6
2015-May-18 17:33N 66°33' E 012°18'1111.1
2015-May-18 16:33N 66°22' E 012°22'1513.5
2015-May-18 15:26N 66°21' E 012°60'1 0.1
2015-May-18 06:05N 66°21' E 012°57'815.2
2015-May-18 05:33N 66°22' E 012°38'1514.9
2015-May-18 04:33N 66°30' E 012°07'6 5.1
2015-May-18 03:28N 66°35' E 012°13'0 0.0
2015-May-18 02:22N 66°35' E 012°13'0 0.0
2015-May-18 01:14N 66°35' E 012°13'0 0.0
2015-May-18 00:26N 66°35' E 012°13'0 0.0
2015-May-17 23:26N 66°35' E 012°13'0 0.0
2015-May-17 21:20N 66°35' E 012°13'6 7.0
2015-May-17 20:30N 66°30' E 012°06'1515.6
2015-May-17 19:33N 66°22' E 012°38'3 1.7
2015-May-17 17:33N 66°23' E 012°45'1615.4
2015-May-17 16:29N 66°30' E 012°08'6 6.9
2015-May-17 15:33N 66°31' E 012°24'1715.8
2015-May-17 14:30N 66°21' E 012°57'910.0
2015-May-17 13:33N 66°23' E 012°35'1413.8
2015-May-17 12:31N 66°35' E 012°13'0 0.1
2015-May-17 11:22N 66°35' E 012°13'0 0.0
2015-May-17 10:21N 66°35' E 012°13'  
Track history (hours):
 
Tides and Currents Weather Stations Pressure Air Temp Water Temp Dewpoint Dewpoint Depression Visibility Wind Speed Wind Dir Waves Ship Positions

Fjordprinsessen

Last reported at 2015-May-27 09:12 UTC. Time now 2015-May-27 09:55 UTC.
Position N 66°06' E 012°45'.

Length 30 m; draft 2 m.

Type: High speed craft. MMSI: 259604000.

Date/timePositionNaut miles runAvg speedWind from/ knotsBaromVisibWave heightAir tempDewpointWater temp
2015-May-27 09:12N 66°06' E 012°45'13 4.5
2015-May-27 06:25N 66°18' E 012°57'910.4
2015-May-27 05:33N 66°22' E 012°38'1514.8
2015-May-27 04:33N 66°30' E 012°06'6 4.3
2015-May-27 03:13N 66°35' E 012°13'0 0.0
2015-May-27 01:25N 66°35' E 012°13'0 0.0
2015-May-27 00:31N 66°35' E 012°13'0 0.0
2015-May-26 22:13N 66°35' E 012°13'0 0.0
2015-May-26 20:07N 66°35' E 012°13'610.4
2015-May-26 19:33N 66°30' E 012°06'1514.9
2015-May-26 18:33N 66°22' E 012°37'1616.3
2015-May-26 17:33N 66°35' E 012°13'1313.3
2015-May-26 16:33N 66°22' E 012°24'1514.0
2015-May-26 15:31N 66°20' E 012°60'0 0.0
2015-May-26 06:15N 66°21' E 012°59'912.7
2015-May-26 05:33N 66°22' E 012°38'1514.6
2015-May-26 04:33N 66°30' E 012°07'6 4.3
2015-May-26 03:15N 66°35' E 012°13'0 0.0
2015-May-26 02:21N 66°35' E 012°13'0 0.0
2015-May-26 01:03N 66°35' E 012°13'0 0.0
2015-May-26 00:09N 66°35' E 012°13'0 0.0
2015-May-25 23:27N 66°35' E 012°13'0 0.0
2015-May-25 22:33N 66°35' E 012°13'0 0.0
2015-May-25 21:03N 66°35' E 012°13'2 4.7
2015-May-25 20:33N 66°33' E 012°10'1515.4
2015-May-25 19:34N 66°22' E 012°37'9 7.0
2015-May-25 18:13N 66°18' E 012°57'711.0
2015-May-25 17:33N 66°23' E 012°46'1615.6
2015-May-25 16:33N 66°29' E 012°10'9 9.0
2015-May-25 15:34N 66°28' E 012°33'1412.9
2015-May-25 14:30N 66°20' E 013°00'1314.2
2015-May-25 13:34N 66°23' E 012°28'1312.9
2015-May-25 12:33N 66°35' E 012°13'1414.2
2015-May-25 11:34N 66°26' E 012°40'9 0.2
2015-May-23 12:22N 66°19' E 012°53'2327.8
2015-May-23 11:33N 66°35' E 012°12'1313.2
2015-May-23 10:34N 66°22' E 012°23'1913.3
2015-May-23 09:10N 66°05' E 012°43'13 4.6
2015-May-23 06:25N 66°17' E 012°57'910.9
2015-May-23 05:33N 66°22' E 012°37'1514.5
2015-May-23 04:33N 66°30' E 012°06'6 2.4
2015-May-23 02:07N 66°35' E 012°13'6 0.9
2015-May-22 19:33N 66°30' E 012°06'1514.8
2015-May-22 18:33N 66°22' E 012°37'1615.7
2015-May-22 17:31N 66°35' E 012°12'1313.7
2015-May-22 16:34N 66°22' E 012°22'1515.2
2015-May-22 15:33N 66°20' E 013°00'8 2.8
2015-May-22 12:34N 66°25' E 012°43'1515.4
2015-May-22 11:33N 66°30' E 012°06'1514.7
2015-May-22 10:33N 66°22' E 012°38'1512.1
2015-May-22 09:16N 66°07' E 012°47'10 3.7
2015-May-22 06:27N 66°17' E 012°57'910.6
2015-May-22 05:34N 66°22' E 012°38'1514.5
2015-May-22 04:33N 66°30' E 012°06'6 4.0
2015-May-22 03:08N 66°35' E 012°13'0 0.0
2015-May-22 02:20N 66°35' E 012°13'0 0.0
2015-May-21 23:32N 66°35' E 012°13'6 1.5
2015-May-21 19:33N 66°30' E 012°06'1514.9
2015-May-21 18:33N 66°22' E 012°38'1413.4
2015-May-21 17:32N 66°33' E 012°17'1111.5
2015-May-21 16:33N 66°22' E 012°22'1513.6
2015-May-21 15:26N 66°20' E 013°00'2 0.2
2015-May-21 06:18N 66°19' E 012°58'911.8
2015-May-21 05:33N 66°22' E 012°38'1514.8
2015-May-21 04:33N 66°30' E 012°07'6 5.1
2015-May-21 03:29N 66°35' E 012°13'0 0.0
2015-May-21 02:29N 66°35' E 012°13'0 0.0
2015-May-21 01:29N 66°35' E 012°13'0 0.0
2015-May-21 00:05N 66°35' E 012°13'0 0.0
2015-May-20 23:04N 66°35' E 012°13'0 0.0
2015-May-20 21:28N 66°35' E 012°13'0 0.0
2015-May-20 20:10N 66°35' E 012°13'5 8.3
2015-May-20 19:34N 66°31' E 012°07'1514.8
2015-May-20 18:33N 66°22' E 012°37'1614.7
2015-May-20 17:30N 66°34' E 012°14'1313.3
2015-May-20 16:34N 66°22' E 012°22'1515.3
2015-May-20 15:33N 66°20' E 013°00'1 0.5
2015-May-20 13:11N 66°20' E 012°58'711.7
2015-May-20 12:33N 66°25' E 012°44'1616.1
2015-May-20 11:33N 66°30' E 012°06'1514.9
2015-May-20 10:33N 66°22' E 012°38'1611.8
2015-May-20 09:14N 66°07' E 012°46'13 4.3
2015-May-20 06:18N 66°19' E 012°58'911.8
2015-May-20 05:33N 66°22' E 012°38'1514.7
2015-May-20 04:33N 66°30' E 012°07'5 4.2
2015-May-20 03:17N 66°35' E 012°13'0 0.0
2015-May-20 02:29N 66°35' E 012°13'0 0.0
2015-May-20 01:11N 66°35' E 012°13'0 0.0
2015-May-20 00:17N 66°35' E 012°13'0 0.0
2015-May-19 23:23N 66°35' E 012°13'0 0.0
2015-May-19 22:17N 66°35' E 012°13'0 0.0
2015-May-19 21:17N 66°35' E 012°13'0 0.0
2015-May-19 20:29N 66°35' E 012°13'5 5.2
2015-May-19 19:34N 66°31' E 012°07'1514.9
2015-May-19 18:33N 66°22' E 012°37'1313.4
2015-May-19 17:33N 66°33' E 012°18'1110.8
2015-May-19 16:34N 66°22' E 012°22'1514.4
2015-May-19 15:30N 66°20' E 013°00'0 0.0
2015-May-19 06:15N 66°21' E 012°60'912.5
2015-May-19 05:33N 66°23' E 012°39'1514.7
2015-May-19 04:33N 66°30' E 012°06'6 5.1
2015-May-19 03:25N 66°35' E 012°13'0 0.0
2015-May-19 02:31N 66°35' E 012°13'0 0.0
2015-May-19 01:25N 66°35' E 012°13'0 0.0
2015-May-19 00:25N 66°35' E 012°13'0 0.0
2015-May-18 23:31N 66°35' E 012°13'0 0.0
2015-May-18 22:25N 66°35' E 012°13'0 0.0
2015-May-18 21:25N 66°35' E 012°13'0 0.0
2015-May-18 20:31N 66°35' E 012°13'1 1.0
2015-May-18 19:34N 66°34' E 012°12'1312.9
2015-May-18 18:34N 66°24' E 012°32'1110.6
2015-May-18 17:33N 66°33' E 012°18'1111.1
2015-May-18 16:33N 66°22' E 012°22'1513.5
2015-May-18 15:26N 66°21' E 012°60'1 0.1
2015-May-18 06:05N 66°21' E 012°57'815.2
2015-May-18 05:33N 66°22' E 012°38'1514.9
2015-May-18 04:33N 66°30' E 012°07'6 5.1
2015-May-18 03:28N 66°35' E 012°13'0 0.0
2015-May-18 02:22N 66°35' E 012°13'0 0.0
2015-May-18 01:14N 66°35' E 012°13'0 0.0
2015-May-18 00:26N 66°35' E 012°13'0 0.0
2015-May-17 23:26N 66°35' E 012°13'0 0.0
2015-May-17 21:20N 66°35' E 012°13'6 7.0
2015-May-17 20:30N 66°30' E 012°06'1515.6
2015-May-17 19:33N 66°22' E 012°38'3 1.7
2015-May-17 17:33N 66°23' E 012°45'1615.4
2015-May-17 16:29N 66°30' E 012°08'6 6.9
2015-May-17 15:33N 66°31' E 012°24'1715.8
2015-May-17 14:30N 66°21' E 012°57'910.0
2015-May-17 13:33N 66°23' E 012°35'1413.8
2015-May-17 12:31N 66°35' E 012°13'0 0.1
2015-May-17 11:22N 66°35' E 012°13'0 0.0
2015-May-17 10:21N 66°35' E 012°13'  

Dump ship's entire track history